sensor_id;sensor_type;location;lat;lon;timestamp;pressure;altitude;pressure_sealevel;temperature;humidity
47710;BME280;33473;51.640;5.892;2022-07-09T00:01:05;102700;;;22.1;52.0
47710;BME280;33473;51.640;5.892;2022-07-09T00:14:24;102700;;;22.0;51.0
47710;BME280;33473;51.640;5.892;2022-07-09T00:27:44;102700;;;21.9;52.0
47710;BME280;33473;51.640;5.892;2022-07-09T00:41:05;102700;;;21.6;51.0
47710;BME280;33473;51.640;5.892;2022-07-09T00:54:27;102700;;;21.4;51.0
47710;BME280;33473;51.640;5.892;2022-07-09T01:07:46;102700;;;21.2;52.0
47710;BME280;33473;51.640;5.892;2022-07-09T01:21:06;102700;;;21.1;53.0
47710;BME280;33473;51.640;5.892;2022-07-09T01:34:26;102700;;;21.0;53.0
47710;BME280;33473;51.640;5.892;2022-07-09T01:47:45;102600;;;21.0;53.0
47710;BME280;33473;51.640;5.892;2022-07-09T02:01:07;102600;;;20.8;52.0
47710;BME280;33473;51.640;5.892;2022-07-09T02:14:28;102600;;;20.7;52.0
47710;BME280;33473;51.640;5.892;2022-07-09T02:27:49;102600;;;20.5;53.0
47710;BME280;33473;51.640;5.892;2022-07-09T02:41:09;102600;;;20.5;52.0
47710;BME280;33473;51.640;5.892;2022-07-09T02:54:28;102600;;;20.3;52.0
47710;BME280;33473;51.640;5.892;2022-07-09T03:07:49;102600;;;20.2;53.0
47710;BME280;33473;51.640;5.892;2022-07-09T03:21:11;102600;;;20.2;53.0
47710;BME280;33473;51.640;5.892;2022-07-09T03:34:32;102600;;;20.0;52.0
47710;BME280;33473;51.640;5.892;2022-07-09T03:47:51;102600;;;19.9;54.0
47710;BME280;33473;51.640;5.892;2022-07-09T04:01:13;102600;;;20.0;54.0
47710;BME280;33473;51.640;5.892;2022-07-09T04:14:34;102600;;;20.1;54.0
47710;BME280;33473;51.640;5.892;2022-07-09T04:27:53;102600;;;20.4;55.0
47710;BME280;33473;51.640;5.892;2022-07-09T04:41:15;102600;;;20.5;55.0
47710;BME280;33473;51.640;5.892;2022-07-09T04:54:34;102600;;;20.7;55.0
47710;BME280;33473;51.640;5.892;2022-07-09T05:07:56;102600;;;21.0;55.0
47710;BME280;33473;51.640;5.892;2022-07-09T05:21:17;102600;;;21.4;56.0
47710;BME280;33473;51.640;5.892;2022-07-09T05:34:36;102600;;;21.7;55.0
47710;BME280;33473;51.640;5.892;2022-07-09T05:47:58;102600;;;22.1;56.0
47710;BME280;33473;51.640;5.892;2022-07-09T06:01:17;102600;;;22.6;55.0
47710;BME280;33473;51.640;5.892;2022-07-09T06:14:38;102600;;;23.0;55.0
47710;BME280;33473;51.640;5.892;2022-07-09T06:28:00;102600;;;23.4;54.0
47710;BME280;33473;51.640;5.892;2022-07-09T06:41:19;102600;;;23.7;53.0
47710;BME280;33473;51.640;5.892;2022-07-09T06:54:41;102600;;;24.2;52.0
47710;BME280;33473;51.640;5.892;2022-07-09T07:08:00;102600;;;24.6;51.0
47710;BME280;33473;51.640;5.892;2022-07-09T07:21:21;102600;;;24.9;49.0
47710;BME280;33473;51.640;5.892;2022-07-09T07:34:43;102600;;;25.3;49.0
47710;BME280;33473;51.640;5.892;2022-07-09T07:48:03;102600;;;25.9;47.0
47710;BME280;33473;51.640;5.892;2022-07-09T08:01:24;102600;;;26.3;47.0
47710;BME280;33473;51.640;5.892;2022-07-09T08:14:45;102600;;;27.4;44.0
47710;BME280;33473;51.640;5.892;2022-07-09T08:28:05;102500;;;27.8;42.0
47710;BME280;33473;51.640;5.892;2022-07-09T08:41:26;102500;;;28.0;40.0
47710;BME280;33473;51.640;5.892;2022-07-09T08:54:47;102500;;;28.6;41.0
47710;BME280;33473;51.640;5.892;2022-07-09T09:08:07;102500;;;28.6;39.0
47710;BME280;33473;51.640;5.892;2022-07-09T09:21:27;102500;;;28.5;39.0
47710;BME280;33473;51.640;5.892;2022-07-09T09:34:46;102500;;;28.7;40.0
47710;BME280;33473;51.640;5.892;2022-07-09T09:48:07;102500;;;29.1;39.0
47710;BME280;33473;51.640;5.892;2022-07-09T10:01:29;102500;;;29.1;39.0
47710;BME280;33473;51.640;5.892;2022-07-09T10:14:50;102500;;;29.1;40.0
47710;BME280;33473;51.640;5.892;2022-07-09T10:28:10;102500;;;29.7;38.0
47710;BME280;33473;51.640;5.892;2022-07-09T10:41:31;102500;;;29.7;37.0
47710;BME280;33473;51.640;5.892;2022-07-09T10:54:52;102500;;;29.2;38.0
47710;BME280;33473;51.640;5.892;2022-07-09T11:08:13;102500;;;29.5;39.0
47710;BME280;33473;51.640;5.892;2022-07-09T11:21:33;102500;;;29.0;39.0
47710;BME280;33473;51.640;5.892;2022-07-09T11:34:53;102500;;;29.3;38.0
47710;BME280;33473;51.640;5.892;2022-07-09T11:48:13;102500;;;29.6;36.0
47710;BME280;33473;51.640;5.892;2022-07-09T12:01:34;102500;;;29.4;38.0
47710;BME280;33473;51.640;5.892;2022-07-09T12:14:55;102500;;;29.5;36.0
47710;BME280;33473;51.640;5.892;2022-07-09T12:28:15;102500;;;29.5;36.0
47710;BME280;33473;51.640;5.892;2022-07-09T12:41:36;102500;;;29.1;36.0
47710;BME280;33473;51.640;5.892;2022-07-09T12:54:56;102500;;;29.7;34.0
47710;BME280;33473;51.640;5.892;2022-07-09T13:08:15;102500;;;29.8;35.0
47710;BME280;33473;51.640;5.892;2022-07-09T13:21:37;102500;;;29.5;33.0
47710;BME280;33473;51.640;5.892;2022-07-09T13:34:56;102500;;;29.3;32.0
47710;BME280;33473;51.640;5.892;2022-07-09T13:48:17;102500;;;29.2;33.0
47710;BME280;33473;51.640;5.892;2022-07-09T14:01:37;102500;;;29.0;32.0
47710;BME280;33473;51.640;5.892;2022-07-09T14:14:58;102500;;;29.5;33.0
47710;BME280;33473;51.640;5.892;2022-07-09T14:28:18;102400;;;29.9;31.0
47710;BME280;33473;51.640;5.892;2022-07-09T14:41:38;102500;;;29.6;30.0
47710;BME280;33473;51.640;5.892;2022-07-09T14:54:58;102500;;;30.0;29.0
47710;BME280;33473;51.640;5.892;2022-07-09T15:08:17;102400;;;29.8;28.0
47710;BME280;33473;51.640;5.892;2022-07-09T15:21:37;102400;;;29.9;28.0
47710;BME280;33473;51.640;5.892;2022-07-09T15:34:58;102400;;;30.2;28.0
47710;BME280;33473;51.640;5.892;2022-07-09T15:48:18;102400;;;29.9;29.0
47710;BME280;33473;51.640;5.892;2022-07-09T16:01:39;102400;;;29.2;31.0
47710;BME280;33473;51.640;5.892;2022-07-09T16:15:00;102400;;;29.5;31.0
47710;BME280;33473;51.640;5.892;2022-07-09T16:28:20;102400;;;29.3;32.0
47710;BME280;33473;51.640;5.892;2022-07-09T16:41:40;102500;;;28.8;32.0
47710;BME280;33473;51.640;5.892;2022-07-09T16:54:59;102500;;;27.9;32.0
47710;BME280;33473;51.640;5.892;2022-07-09T17:08:19;102500;;;27.0;33.0
47710;BME280;33473;51.640;5.892;2022-07-09T17:21:40;102500;;;26.1;34.0
47710;BME280;33473;51.640;5.892;2022-07-09T17:35:02;102500;;;26.1;34.0
47710;BME280;33473;51.640;5.892;2022-07-09T17:48:21;102500;;;25.8;33.0
47710;BME280;33473;51.640;5.892;2022-07-09T18:01:41;102500;;;25.5;35.0
47710;BME280;33473;51.640;5.892;2022-07-09T18:15:02;102500;;;24.6;34.0
47710;BME280;33473;51.640;5.892;2022-07-09T18:28:23;102500;;;24.3;35.0
47710;BME280;33473;51.640;5.892;2022-07-09T18:41:44;102600;;;24.0;35.0
47710;BME280;33473;51.640;5.892;2022-07-09T18:55:04;102600;;;23.5;35.0
47710;BME280;33473;51.640;5.892;2022-07-09T19:08:25;102600;;;23.2;36.0
47710;BME280;33473;51.640;5.892;2022-07-09T19:21:46;102600;;;23.3;36.0
47710;BME280;33473;51.640;5.892;2022-07-09T19:35:08;102600;;;23.3;36.0
47710;BME280;33473;51.640;5.892;2022-07-09T19:48:29;102600;;;22.9;36.0
47710;BME280;33473;51.640;5.892;2022-07-09T20:01:48;102600;;;22.7;37.0
47710;BME280;33473;51.640;5.892;2022-07-09T20:15:10;102600;;;22.5;38.0
47710;BME280;33473;51.640;5.892;2022-07-09T20:28:31;102600;;;22.2;39.0
47710;BME280;33473;51.640;5.892;2022-07-09T20:41:50;102600;;;21.9;40.0
47710;BME280;33473;51.640;5.892;2022-07-09T20:55:10;102600;;;21.8;40.0
47710;BME280;33473;51.640;5.892;2022-07-09T21:08:30;102600;;;21.5;41.0
47710;BME280;33473;51.640;5.892;2022-07-09T21:21:51;102600;;;21.2;42.0
47710;BME280;33473;51.640;5.892;2022-07-09T21:35:12;102600;;;20.8;43.0
47710;BME280;33473;51.640;5.892;2022-07-09T21:48:33;102600;;;20.5;44.0
47710;BME280;33473;51.640;5.892;2022-07-09T22:01:55;102600;;;20.2;45.0
47710;BME280;33473;51.640;5.892;2022-07-09T22:15:14;102600;;;20.0;45.0
47710;BME280;33473;51.640;5.892;2022-07-09T22:28:35;102600;;;19.7;46.0
47710;BME280;33473;51.640;5.892;2022-07-09T22:41:55;102600;;;19.4;47.0
47710;BME280;33473;51.640;5.892;2022-07-09T22:55:16;102600;;;19.6;47.0
47710;BME280;33473;51.640;5.892;2022-07-09T23:08:36;102600;;;19.8;47.0
47710;BME280;33473;51.640;5.892;2022-07-09T23:21:57;102600;;;20.1;47.0
47710;BME280;33473;51.640;5.892;2022-07-09T23:35:18;102600;;;20.3;46.0
47710;BME280;33473;51.640;5.892;2022-07-09T23:48:38;102600;;;20.5;46.0
